createdAt,value
2023-02-18T00:02:05.888Z,4
2023-02-18T00:08:06.493Z,5
2023-02-18T00:14:06.025Z,4
2023-02-18T00:20:07.078Z,4
2023-02-18T00:26:06.548Z,5
2023-02-18T00:32:05.477Z,5
2023-02-18T00:38:06.645Z,4
2023-02-18T00:44:06.447Z,6
2023-02-18T00:50:07.616Z,4
2023-02-18T00:56:06.484Z,4
2023-02-18T01:02:05.041Z,5
2023-02-18T01:08:06.733Z,4
2023-02-18T01:14:04.950Z,4
2023-02-18T01:20:07.627Z,4
2023-02-18T01:26:05.393Z,4
2023-02-18T01:32:08.498Z,4
2023-02-18T01:38:05.234Z,5
2023-02-18T01:44:05.930Z,3
2023-02-18T01:50:06.846Z,3
2023-02-18T01:56:05.840Z,3
2023-02-18T02:02:05.945Z,4
2023-02-18T02:08:05.903Z,3
2023-02-18T02:14:04.741Z,3
2023-02-18T02:20:05.630Z,3
2023-02-18T02:26:04.568Z,3
2023-02-18T02:32:04.613Z,3
2023-02-18T02:38:05.130Z,3
2023-02-18T02:44:04.684Z,3
2023-02-18T02:50:06.484Z,3
2023-02-18T02:56:04.989Z,3
2023-02-18T03:02:05.644Z,3
2023-02-18T03:08:04.694Z,3
2023-02-18T03:14:04.842Z,2
2023-02-18T03:20:05.805Z,2
2023-02-18T03:26:04.788Z,2
2023-02-18T03:32:05.497Z,3
2023-02-18T03:38:05.555Z,2
2023-02-18T03:44:05.588Z,2
2023-02-18T03:50:06.025Z,2
2023-02-18T03:56:05.839Z,1
2023-02-18T04:02:06.055Z,1
2023-02-18T04:08:05.685Z,1
2023-02-18T04:14:05.395Z,1
2023-02-18T04:20:08.050Z,1
2023-02-18T04:26:05.016Z,1
2023-02-18T04:32:06.261Z,1
2023-02-18T04:38:05.030Z,1
2023-02-18T04:44:05.504Z,1
2023-02-18T04:50:11.285Z,1
2023-02-18T04:56:05.998Z,2
2023-02-18T05:02:05.315Z,1
2023-02-18T05:08:07.113Z,1
2023-02-18T05:14:04.900Z,1
2023-02-18T05:20:09.789Z,1
2023-02-18T05:26:09.461Z,1
2023-02-18T05:32:05.810Z,1
2023-02-18T05:38:07.463Z,1
2023-02-18T05:44:06.753Z,1
2023-02-18T05:50:09.938Z,1
2023-02-18T05:56:07.339Z,1
2023-02-18T06:02:06.512Z,1
2023-02-18T06:08:07.831Z,1
2023-02-18T06:14:07.004Z,1
2023-02-18T06:20:07.308Z,1
2023-02-18T06:26:06.881Z,1
2023-02-18T06:32:06.470Z,1
2023-02-18T06:38:07.959Z,1
2023-02-18T06:44:07.213Z,1
2023-02-18T06:50:11.531Z,1
2023-02-18T06:56:06.994Z,1
2023-02-18T07:02:07.003Z,1
2023-02-18T07:08:06.563Z,1
2023-02-18T07:14:08.261Z,1
2023-02-18T07:20:08.810Z,1
2023-02-18T07:26:07.020Z,1
2023-02-18T07:32:07.351Z,1
2023-02-18T07:38:07.686Z,1
2023-02-18T07:44:08.033Z,1
2023-02-18T07:50:09.709Z,1
2023-02-18T07:56:07.742Z,1
2023-02-18T08:02:06.842Z,1
2023-02-18T08:08:07.513Z,1
2023-02-18T08:14:05.164Z,2
2023-02-18T08:20:11.106Z,1
2023-02-18T08:26:07.476Z,1
2023-02-18T08:32:06.639Z,1
2023-02-18T08:38:06.034Z,1
2023-02-18T08:44:07.284Z,3
2023-02-18T08:50:10.789Z,3
2023-02-18T08:56:06.742Z,3
2023-02-18T09:02:07.402Z,2
2023-02-18T09:08:07.280Z,7
2023-02-18T09:14:06.478Z,4
2023-02-18T09:20:16.694Z,12
2023-02-18T09:26:06.290Z,12
2023-02-18T09:32:06.884Z,5
2023-02-18T09:38:06.720Z,3
2023-02-18T09:44:08.440Z,2
2023-02-18T09:50:11.949Z,5
2023-02-18T09:56:06.401Z,6
2023-02-18T10:02:08.218Z,4
2023-02-18T10:08:07.467Z,4
2023-02-18T10:14:06.525Z,2
2023-02-18T10:20:10.476Z,3
2023-02-18T10:26:07.587Z,3
2023-02-18T10:32:05.904Z,2
2023-02-18T10:38:05.699Z,2
2023-02-18T10:44:04.715Z,2
2023-02-18T10:50:06.892Z,2
2023-02-18T10:56:06.022Z,2
2023-02-18T11:02:06.541Z,4
2023-02-18T11:08:06.707Z,2
2023-02-18T11:14:07.370Z,2
2023-02-18T11:20:08.567Z,2
2023-02-18T11:26:05.884Z,7
2023-02-18T11:32:06.944Z,2
2023-02-18T11:38:05.922Z,2
2023-02-18T11:44:06.713Z,2
2023-02-18T11:50:07.322Z,1
2023-02-18T11:56:05.872Z,2
2023-02-18T12:02:06.967Z,2
2023-02-18T12:08:05.416Z,2
2023-02-18T12:14:05.133Z,4
2023-02-18T12:20:06.090Z,2
2023-02-18T12:26:04.602Z,2
2023-02-18T12:50:05.338Z,1
2023-02-18T12:56:04.606Z,1
2023-02-18T13:02:04.756Z,1
2023-02-18T13:08:04.650Z,1
2023-02-18T13:14:04.849Z,1
2023-02-18T13:20:08.556Z,1
2023-02-18T13:26:07.536Z,1
2023-02-18T13:32:06.620Z,1
2023-02-18T13:44:05.623Z,2
2023-02-18T13:50:07.361Z,2
2023-02-18T13:56:06.579Z,3
2023-02-18T14:02:05.926Z,2
2023-02-18T14:11:04.742Z,4
2023-02-18T14:17:04.714Z,1
2023-02-18T14:23:04.628Z,1
2023-02-18T14:29:04.875Z,2
2023-02-18T14:35:06.530Z,2
2023-02-18T14:47:04.671Z,2
2023-02-18T14:53:05.112Z,1
2023-02-18T14:59:07.034Z,1
2023-02-18T15:05:10.753Z,1
2023-02-18T15:11:05.559Z,1
2023-02-18T15:17:06.315Z,2
2023-02-18T15:23:07.754Z,1
2023-02-18T15:29:05.884Z,2
2023-02-18T15:35:08.057Z,1
2023-02-18T15:41:05.701Z,2
2023-02-18T15:47:05.277Z,2
2023-02-18T15:53:05.504Z,2
2023-02-18T15:59:06.034Z,2
2023-02-18T16:05:07.805Z,2
2023-02-18T16:11:05.108Z,2
2023-02-18T16:17:05.985Z,1
2023-02-18T16:23:05.404Z,2
2023-02-18T16:29:05.357Z,2
2023-02-18T16:35:08.930Z,2
2023-02-18T16:41:06.003Z,1
2023-02-18T16:47:05.371Z,1
2023-02-18T16:53:05.436Z,2
2023-02-18T16:59:05.719Z,2
2023-02-18T17:05:11.892Z,2
2023-02-18T17:11:06.024Z,2
2023-02-18T17:17:05.751Z,2
2023-02-18T17:23:05.705Z,2
2023-02-18T17:29:05.184Z,2
2023-02-18T17:35:05.954Z,2
2023-02-18T17:41:05.443Z,2
2023-02-18T17:47:05.252Z,1
2023-02-18T17:53:05.284Z,2
2023-02-18T17:59:05.943Z,1
2023-02-18T18:05:07.438Z,2
2023-02-18T18:11:05.398Z,1
2023-02-18T18:17:05.322Z,1
2023-02-18T18:23:05.850Z,2
2023-02-18T18:29:05.070Z,2
2023-02-18T18:35:07.203Z,2
2023-02-18T18:41:05.598Z,2
2023-02-18T18:47:05.644Z,1
2023-02-18T18:53:05.540Z,1
2023-02-18T18:59:05.202Z,1
2023-02-18T19:05:07.090Z,1
2023-02-18T19:11:05.171Z,2
2023-02-18T19:17:05.295Z,2
2023-02-18T19:23:06.191Z,1
2023-02-18T19:29:05.502Z,1
2023-02-18T19:35:06.661Z,2
2023-02-18T19:41:05.627Z,2
2023-02-18T19:47:05.427Z,2
2023-02-18T19:53:05.297Z,2
2023-02-18T19:59:05.539Z,1
2023-02-18T20:05:07.750Z,2
2023-02-18T20:11:05.488Z,2
2023-02-18T20:17:05.246Z,1
2023-02-18T20:23:05.318Z,2
2023-02-18T20:29:06.320Z,1
2023-02-18T20:35:07.164Z,1
2023-02-18T20:41:05.195Z,1
2023-02-18T20:47:05.619Z,1
2023-02-18T20:53:05.313Z,4
2023-02-18T20:59:07.052Z,1
2023-02-18T21:05:08.481Z,1
2023-02-18T21:11:06.150Z,1
2023-02-18T21:17:07.314Z,1
2023-02-18T21:23:05.657Z,1
2023-02-18T21:29:05.313Z,1
2023-02-18T21:35:06.360Z,1
2023-02-18T21:41:05.983Z,2
2023-02-18T21:47:05.768Z,1
2023-02-18T21:53:06.093Z,1
2023-02-18T21:59:05.054Z,1
2023-02-18T22:05:06.294Z,1
2023-02-18T22:11:06.242Z,1
2023-02-18T22:17:05.703Z,1
2023-02-18T22:23:05.268Z,2
2023-02-18T22:29:05.233Z,1
2023-02-18T22:35:06.739Z,2
2023-02-18T22:41:06.016Z,1
2023-02-18T22:47:05.928Z,2
2023-02-18T22:53:06.208Z,1
2023-02-18T22:59:05.144Z,2
2023-02-18T23:05:08.417Z,1
2023-02-18T23:11:06.372Z,2
2023-02-18T23:17:05.354Z,1
2023-02-18T23:23:05.419Z,1
2023-02-18T23:29:05.055Z,1
2023-02-18T23:35:06.785Z,3
2023-02-18T23:41:05.141Z,2
2023-02-18T23:47:05.464Z,2
2023-02-18T23:53:05.642Z,4
2023-02-18T23:59:06.027Z,2
